createdAt,value
2017-06-05T00:02:26.102Z,5.30
2017-06-05T00:04:53.634Z,4.83
2017-06-05T00:07:21.140Z,4.30
2017-06-05T00:09:48.653Z,6.60
2017-06-05T00:12:16.177Z,9.50
2017-06-05T00:14:43.703Z,9.47
2017-06-05T00:17:11.233Z,7.20
2017-06-05T00:19:38.767Z,5.93
2017-06-05T00:22:06.279Z,4.87
2017-06-05T00:24:33.804Z,4.67
2017-06-05T00:27:02.073Z,4.17
2017-06-05T00:29:29.607Z,4.40
2017-06-05T00:31:57.123Z,4.50
2017-06-05T00:34:24.629Z,4.37
2017-06-05T00:36:52.153Z,5.30
2017-06-05T00:39:19.649Z,5.47
2017-06-05T00:41:47.186Z,4.20
2017-06-05T00:44:14.692Z,4.87
2017-06-05T00:46:42.192Z,4.53
2017-06-05T00:49:09.700Z,6.00
2017-06-05T00:51:37.205Z,4.40
2017-06-05T00:54:04.992Z,5.33
2017-06-05T00:56:32.524Z,5.10
2017-06-05T00:59:00.024Z,5.50
2017-06-05T01:01:27.532Z,5.00
2017-06-05T01:03:55.031Z,4.63
2017-06-05T01:06:22.562Z,5.70
2017-06-05T01:08:50.083Z,6.20
2017-06-05T01:11:17.593Z,5.37
2017-06-05T01:13:45.141Z,4.77
2017-06-05T01:16:12.662Z,5.43
2017-06-05T01:18:40.969Z,4.20
2017-06-05T01:21:08.468Z,6.63
2017-06-05T01:23:35.990Z,5.07
2017-06-05T01:26:03.516Z,4.83
2017-06-05T01:28:31.033Z,4.50
2017-06-05T01:30:58.675Z,5.43
2017-06-05T01:33:26.169Z,5.40
2017-06-05T01:35:53.676Z,4.90
2017-06-05T01:38:21.201Z,4.80
2017-06-05T01:40:48.708Z,5.60
2017-06-05T01:43:16.249Z,4.77
2017-06-05T01:45:43.756Z,5.00
2017-06-05T01:48:11.258Z,4.60
2017-06-05T01:50:38.774Z,4.90
2017-06-05T01:53:06.285Z,4.63
2017-06-05T01:55:34.729Z,4.60
2017-06-05T01:58:02.224Z,4.93
2017-06-05T02:00:29.714Z,5.00
2017-06-05T02:02:57.227Z,5.30
2017-06-05T02:05:24.733Z,5.10
2017-06-05T02:07:52.260Z,5.10
2017-06-05T02:10:19.765Z,5.47
2017-06-05T02:12:47.266Z,5.43
2017-06-05T02:15:14.791Z,5.03
2017-06-05T02:17:42.298Z,4.73
2017-06-05T02:20:10.072Z,4.80
2017-06-05T02:22:37.583Z,3.90
2017-06-05T02:25:05.081Z,3.67
2017-06-05T02:27:32.602Z,5.13
2017-06-05T02:30:00.096Z,4.43
2017-06-05T02:32:27.616Z,4.97
2017-06-05T02:34:55.114Z,4.13
2017-06-05T02:37:22.609Z,3.20
2017-06-05T02:39:50.121Z,5.37
2017-06-05T02:42:17.617Z,3.90
2017-06-05T02:44:45.183Z,4.27
2017-06-05T02:47:12.684Z,3.70
2017-06-05T02:49:40.191Z,3.57
2017-06-05T02:52:07.714Z,4.17
2017-06-05T02:54:35.214Z,4.30
2017-06-05T02:57:02.986Z,3.80
2017-06-05T02:59:30.522Z,4.10
2017-06-05T03:01:58.024Z,4.20
2017-06-05T03:04:25.547Z,4.53
2017-06-05T03:06:53.052Z,3.67
2017-06-05T03:09:20.786Z,4.40
2017-06-05T03:11:48.294Z,3.77
2017-06-05T03:14:15.808Z,4.03
2017-06-05T03:16:43.313Z,4.00
2017-06-05T03:19:10.812Z,3.73
2017-06-05T03:21:38.636Z,4.17
2017-06-05T03:24:06.137Z,3.97
2017-06-05T03:26:33.632Z,3.97
2017-06-05T03:29:01.145Z,3.90
2017-06-05T03:31:28.646Z,4.20
2017-06-05T03:33:56.445Z,3.77
2017-06-05T03:36:23.950Z,4.33
2017-06-05T03:38:51.461Z,4.40
2017-06-05T03:41:18.984Z,4.50
2017-06-05T03:43:46.489Z,3.30
2017-06-05T03:46:14.229Z,4.50
2017-06-05T03:48:41.738Z,4.27
2017-06-05T03:51:09.247Z,4.03
2017-06-05T03:53:36.772Z,4.40
2017-06-05T03:56:04.264Z,4.30
2017-06-05T03:58:31.996Z,4.40
2017-06-05T04:00:59.489Z,5.17
2017-06-05T04:03:27.008Z,3.57
2017-06-05T04:05:54.499Z,4.13
2017-06-05T04:08:22.022Z,3.70
2017-06-05T04:10:49.522Z,3.33
2017-06-05T04:13:17.266Z,3.30
2017-06-05T04:15:44.769Z,3.70
2017-06-05T04:18:12.269Z,3.43
2017-06-05T04:20:40.076Z,3.20
2017-06-05T04:23:07.576Z,3.23
2017-06-05T04:25:35.088Z,4.27
2017-06-05T04:28:02.609Z,2.97
2017-06-05T04:30:30.096Z,3.30
2017-06-05T04:32:57.865Z,3.40
2017-06-05T04:35:25.364Z,3.30
2017-06-05T04:37:53.635Z,3.50
2017-06-05T04:40:21.152Z,3.83
2017-06-05T04:42:48.662Z,3.13
2017-06-05T04:45:16.406Z,3.27
2017-06-05T04:47:43.913Z,3.10
2017-06-05T04:50:11.407Z,3.50
2017-06-05T04:52:38.921Z,3.73
2017-06-05T04:55:06.426Z,3.20
2017-06-05T04:57:34.145Z,3.80
2017-06-05T05:00:01.651Z,3.43
2017-06-05T05:02:29.161Z,3.70
2017-06-05T05:04:56.687Z,4.47
2017-06-05T05:07:24.188Z,3.40
2017-06-05T05:09:52.117Z,3.97
2017-06-05T05:12:19.617Z,3.40
2017-06-05T05:14:47.162Z,3.40
2017-06-05T05:17:14.678Z,3.97
2017-06-05T05:19:42.193Z,3.07
2017-06-05T05:22:10.003Z,2.90
2017-06-05T05:24:37.512Z,3.13
2017-06-05T05:27:05.014Z,3.10
2017-06-05T05:29:32.532Z,2.30
2017-06-05T05:32:00.037Z,2.60
2017-06-05T05:34:27.748Z,2.30
2017-06-05T05:36:55.273Z,3.53
2017-06-05T05:39:22.772Z,2.67
2017-06-05T05:41:50.301Z,3.27
2017-06-05T05:44:17.797Z,3.10
2017-06-05T05:46:45.536Z,2.10
2017-06-05T05:49:13.045Z,2.30
2017-06-05T05:51:40.568Z,2.73
2017-06-05T05:54:08.873Z,2.50
2017-06-05T05:56:36.399Z,2.30
2017-06-05T05:59:04.155Z,1.87
2017-06-05T06:01:31.653Z,1.60
2017-06-05T06:03:59.156Z,2.20
2017-06-05T06:06:26.670Z,2.23
2017-06-05T06:08:54.177Z,2.10
2017-06-05T06:11:21.905Z,2.30
2017-06-05T06:13:49.413Z,2.23
2017-06-05T06:16:16.917Z,1.90
2017-06-05T06:18:44.429Z,2.40
2017-06-05T06:21:11.940Z,1.70
2017-06-05T06:23:39.693Z,1.97
2017-06-05T06:26:07.190Z,1.43
2017-06-05T06:28:34.705Z,2.20
2017-06-05T06:31:02.232Z,1.73
2017-06-05T06:33:29.742Z,2.10
2017-06-05T06:35:57.492Z,1.77
2017-06-05T06:38:25.010Z,2.20
2017-06-05T06:40:52.513Z,1.50
2017-06-05T06:43:20.028Z,2.10
2017-06-05T06:45:47.516Z,1.90
2017-06-05T06:48:15.263Z,1.73
2017-06-05T06:50:43.534Z,1.90
2017-06-05T06:53:11.041Z,2.03
2017-06-05T06:55:38.554Z,1.47
2017-06-05T06:58:06.076Z,2.27
2017-06-05T07:00:33.969Z,2.30
2017-06-05T07:03:01.461Z,2.30
2017-06-05T07:05:28.970Z,1.60
2017-06-05T07:07:56.476Z,1.90
2017-06-05T07:10:23.986Z,1.48
2017-06-05T07:12:51.773Z,2.12
2017-06-05T07:15:19.277Z,1.55
2017-06-05T07:17:46.800Z,1.90
2017-06-05T07:20:14.335Z,1.77
2017-06-05T07:22:41.837Z,2.25
2017-06-05T07:25:09.569Z,1.83
2017-06-05T07:27:37.087Z,2.22
2017-06-05T07:30:04.597Z,1.42
2017-06-05T07:32:32.122Z,2.30
2017-06-05T07:34:59.629Z,1.95
2017-06-05T07:37:27.359Z,1.87
2017-06-05T07:39:54.848Z,2.30
2017-06-05T07:42:22.355Z,2.05
2017-06-05T07:44:49.963Z,2.22
2017-06-05T07:47:17.466Z,1.60
2017-06-05T07:49:45.276Z,1.85
2017-06-05T07:52:12.799Z,1.60
2017-06-05T07:54:40.313Z,2.12
2017-06-05T07:57:07.837Z,1.58
2017-06-05T07:59:35.367Z,2.03
2017-06-05T08:02:03.093Z,2.40
2017-06-05T08:04:30.897Z,3.20
2017-06-05T08:06:58.380Z,1.90
2017-06-05T08:09:25.892Z,2.00
2017-06-05T08:11:53.393Z,1.67
2017-06-05T08:14:21.144Z,2.80
2017-06-05T08:16:48.659Z,2.37
2017-06-05T08:19:16.164Z,1.62
2017-06-05T08:21:43.691Z,1.80
2017-06-05T08:24:11.209Z,1.80
2017-06-05T08:26:38.953Z,1.95
2017-06-05T08:29:06.473Z,2.70
2017-06-05T08:31:34.725Z,2.58
2017-06-05T08:34:02.238Z,2.28
2017-06-05T08:36:29.753Z,2.90
2017-06-05T08:38:57.489Z,2.17
2017-06-05T08:41:28.835Z,1.60
2017-06-05T08:43:56.441Z,1.40
2017-06-05T08:46:24.841Z,1.73
2017-06-05T08:48:53.186Z,1.90
2017-06-05T08:51:21.938Z,2.08
2017-06-05T08:53:49.489Z,2.10
2017-06-05T08:56:18.049Z,2.33
2017-06-05T08:58:45.606Z,2.50
2017-06-05T09:01:13.167Z,1.85
2017-06-05T09:03:40.981Z,1.85
2017-06-05T09:06:08.556Z,3.58
2017-06-05T09:08:38.546Z,2.17
2017-06-05T09:11:06.963Z,3.08
2017-06-05T09:13:34.550Z,2.42
2017-06-05T09:16:03.278Z,3.08
2017-06-05T09:18:31.571Z,4.40
2017-06-05T09:20:59.118Z,1.98
2017-06-05T09:23:26.680Z,1.98
2017-06-05T09:25:54.297Z,2.53
2017-06-05T09:28:23.858Z,2.85
2017-06-05T09:30:53.813Z,3.22
2017-06-05T09:33:21.363Z,1.70
2017-06-05T09:35:49.703Z,2.65
2017-06-05T09:38:17.273Z,2.30
2017-06-05T09:40:45.046Z,1.77
2017-06-05T09:43:12.603Z,2.25
2017-06-05T09:45:41.125Z,1.77
2017-06-05T09:48:08.658Z,2.17
2017-06-05T09:50:36.373Z,2.50
2017-06-05T09:53:05.169Z,2.45
2017-06-05T09:55:32.753Z,2.45
2017-06-05T09:58:00.340Z,2.55
2017-06-05T10:00:27.934Z,2.10
2017-06-05T10:02:55.585Z,1.50
2017-06-05T10:05:23.520Z,2.33
2017-06-05T10:07:51.110Z,1.65
2017-06-05T10:10:19.686Z,2.33
2017-06-05T10:12:47.569Z,2.50
2017-06-05T10:15:15.246Z,1.95
2017-06-05T10:17:43.162Z,1.85
2017-06-05T10:20:10.728Z,1.73
2017-06-05T10:22:38.337Z,1.95
2017-06-05T10:25:06.912Z,1.85
2017-06-05T10:27:34.652Z,2.33
2017-06-05T10:30:03.493Z,1.90
2017-06-05T10:32:31.697Z,2.60
2017-06-05T10:35:01.029Z,2.12
2017-06-05T10:37:28.656Z,2.00
2017-06-05T10:39:57.019Z,2.87
2017-06-05T10:42:24.805Z,2.40
2017-06-05T10:44:54.689Z,2.45
2017-06-05T10:47:23.256Z,2.92
2017-06-05T10:49:51.399Z,2.75
2017-06-05T10:52:19.055Z,2.85
2017-06-05T10:54:46.879Z,2.37
2017-06-05T10:57:14.436Z,3.60
2017-06-05T11:02:34.897Z,2.00
2017-06-05T11:05:02.494Z,1.95
2017-06-05T11:07:30.280Z,3.28
2017-06-05T11:09:57.841Z,1.70
2017-06-05T11:12:25.383Z,1.80
2017-06-05T11:14:52.949Z,1.67
2017-06-05T11:17:20.497Z,2.20
2017-06-05T11:19:48.278Z,1.83
2017-06-05T11:22:15.827Z,2.25
2017-06-05T11:24:43.755Z,3.05
2017-06-05T11:27:11.293Z,2.35
2017-06-05T11:29:38.821Z,2.37
2017-06-05T11:32:06.599Z,2.40
2017-06-05T11:34:34.211Z,2.10
2017-06-05T11:37:01.805Z,2.40
2017-06-05T11:39:29.365Z,2.40
2017-06-05T11:41:57.574Z,1.90
2017-06-05T11:44:26.351Z,1.42
2017-06-05T11:46:53.897Z,1.90
2017-06-05T11:49:21.514Z,2.45
2017-06-05T11:51:49.185Z,1.75
2017-06-05T11:54:16.827Z,2.08
2017-06-05T11:56:44.611Z,2.60
2017-06-05T11:59:12.138Z,2.03
2017-06-05T12:01:39.649Z,1.62
2017-06-05T12:04:07.204Z,1.90
2017-06-05T12:06:34.721Z,1.58
2017-06-05T12:09:02.556Z,2.50
2017-06-05T12:11:30.593Z,2.50
2017-06-05T12:13:58.097Z,2.28
2017-06-05T12:16:25.617Z,2.20
2017-06-05T12:18:53.157Z,2.10
2017-06-05T12:21:20.894Z,2.20
2017-06-05T12:23:48.440Z,1.90
2017-06-05T12:26:15.958Z,2.25
2017-06-05T12:28:43.489Z,2.30
2017-06-05T12:31:10.991Z,2.83
2017-06-05T12:33:38.738Z,2.47
2017-06-05T12:36:06.239Z,2.37
2017-06-05T12:38:33.730Z,2.25
2017-06-05T12:41:01.244Z,2.30
2017-06-05T12:43:28.756Z,4.80
2017-06-05T12:45:56.609Z,1.90
2017-06-05T12:48:24.112Z,1.90
2017-06-05T12:50:51.653Z,2.30
2017-06-05T12:53:19.191Z,3.05
2017-06-05T12:55:46.688Z,2.47
2017-06-05T12:58:14.192Z,2.72
2017-06-05T13:00:41.979Z,2.42
2017-06-05T13:03:09.473Z,2.97
2017-06-05T13:05:36.984Z,2.20
2017-06-05T13:08:04.515Z,2.05
2017-06-05T13:10:32.017Z,1.83
2017-06-05T13:12:59.856Z,2.20
2017-06-05T13:15:27.357Z,2.08
2017-06-05T13:17:54.851Z,2.10
2017-06-05T13:20:22.390Z,2.70
2017-06-05T13:22:49.938Z,2.22
2017-06-05T13:25:17.721Z,1.73
2017-06-05T13:27:45.226Z,1.95
2017-06-05T13:30:12.748Z,2.50
2017-06-05T13:32:40.259Z,2.12
2017-06-05T13:35:07.769Z,3.00
2017-06-05T13:37:35.528Z,2.00
2017-06-05T13:40:03.052Z,2.50
2017-06-05T13:42:30.566Z,2.50
2017-06-05T13:44:58.116Z,2.90
2017-06-05T13:47:25.616Z,2.35
2017-06-05T13:49:53.388Z,1.95
2017-06-05T13:52:20.887Z,2.62
2017-06-05T13:54:48.404Z,2.72
2017-06-05T13:57:15.938Z,1.70
2017-06-05T13:59:43.451Z,1.92
2017-06-05T14:02:11.904Z,1.85
2017-06-05T14:04:39.413Z,2.65
2017-06-05T14:07:06.937Z,2.20
2017-06-05T14:09:34.449Z,2.12
2017-06-05T14:12:01.962Z,1.80
2017-06-05T14:14:29.700Z,2.22
2017-06-05T14:16:57.209Z,2.67
2017-06-05T14:19:24.708Z,2.22
2017-06-05T14:21:52.218Z,2.10
2017-06-05T14:24:19.718Z,2.78
2017-06-05T14:26:47.479Z,2.20
2017-06-05T14:29:14.990Z,2.75
2017-06-05T14:31:42.485Z,2.58
2017-06-05T14:34:10.046Z,2.12
2017-06-05T14:36:37.542Z,2.92
2017-06-05T14:39:05.266Z,2.45
2017-06-05T14:41:32.864Z,2.20
2017-06-05T14:44:00.382Z,2.67
2017-06-05T14:46:27.901Z,2.50
2017-06-05T14:48:55.399Z,2.95
2017-06-05T14:51:23.137Z,2.50
2017-06-05T14:53:50.645Z,1.98
2017-06-05T14:56:18.144Z,1.73
2017-06-05T14:58:45.669Z,2.33
2017-06-05T15:01:13.180Z,2.80
2017-06-05T15:03:40.928Z,2.45
2017-06-05T15:06:08.448Z,3.33
2017-06-05T15:08:35.965Z,2.10
2017-06-05T15:11:03.504Z,2.67
2017-06-05T15:13:31.031Z,2.00
2017-06-05T15:15:58.767Z,2.45
2017-06-05T15:18:27.035Z,1.90
2017-06-05T15:20:54.559Z,2.53
2017-06-05T15:23:22.097Z,3.25
2017-06-05T15:25:49.623Z,3.08
2017-06-05T15:28:17.365Z,2.37
2017-06-05T15:30:44.873Z,2.47
2017-06-05T15:33:12.388Z,2.50
2017-06-05T15:35:39.896Z,2.53
2017-06-05T15:38:07.419Z,2.30
2017-06-05T15:40:35.176Z,2.50
2017-06-05T15:43:03.462Z,4.30
2017-06-05T15:45:30.981Z,2.60
2017-06-05T15:47:58.514Z,3.40
2017-06-05T15:50:26.027Z,4.10
2017-06-05T15:52:53.780Z,2.70
2017-06-05T15:55:21.301Z,2.70
2017-06-05T15:57:48.815Z,2.57
2017-06-05T16:00:16.333Z,2.50
2017-06-05T16:02:43.825Z,2.90
2017-06-05T16:05:11.700Z,3.10
2017-06-05T16:07:39.230Z,3.07
2017-06-05T16:10:06.757Z,3.30
2017-06-05T16:12:34.270Z,2.83
2017-06-05T16:15:01.801Z,3.10
2017-06-05T16:17:29.545Z,3.20
2017-06-05T16:19:57.053Z,5.33
2017-06-05T16:22:24.565Z,4.30
2017-06-05T16:24:52.068Z,4.90
2017-06-05T16:27:19.590Z,5.10
2017-06-05T16:29:47.340Z,5.77
2017-06-05T16:32:14.859Z,5.10
2017-06-05T16:34:42.371Z,7.20
2017-06-05T16:37:09.913Z,10.10
2017-06-05T16:39:37.425Z,8.40
2017-06-05T16:42:05.167Z,11.27
2017-06-05T16:44:32.693Z,13.47
2017-06-05T16:47:00.210Z,10.83
2017-06-05T16:49:27.732Z,11.37
2017-06-05T16:51:55.261Z,8.50
2017-06-05T16:54:23.037Z,7.73
2017-06-05T16:56:50.556Z,10.53
2017-06-05T16:59:18.072Z,10.30
2017-06-05T17:01:45.610Z,10.90
2017-06-05T17:04:13.121Z,14.47
2017-06-05T17:06:40.847Z,8.97
2017-06-05T17:09:08.367Z,12.33
2017-06-05T17:11:35.880Z,10.23
2017-06-05T17:14:03.425Z,8.80
2017-06-05T17:16:30.958Z,10.80
2017-06-05T17:18:59.492Z,10.60
2017-06-05T17:21:26.998Z,12.13
2017-06-05T17:23:54.543Z,11.17
2017-06-05T17:26:22.937Z,9.17
2017-06-05T17:28:50.484Z,9.83
2017-06-05T17:31:18.228Z,12.33
2017-06-05T17:33:45.745Z,15.23
2017-06-05T17:36:13.257Z,20.50
2017-06-05T17:38:40.785Z,13.90
2017-06-05T17:41:08.300Z,14.40
2017-06-05T17:43:36.949Z,10.97
2017-06-05T17:46:04.472Z,13.47
2017-06-05T17:48:32.001Z,12.10
2017-06-05T17:50:59.521Z,22.53
2017-06-05T17:53:27.041Z,12.87
2017-06-05T17:55:54.793Z,11.73
2017-06-05T17:58:22.314Z,14.70
2017-06-05T18:00:49.837Z,15.90
2017-06-05T18:03:17.387Z,14.37
2017-06-05T18:05:45.678Z,11.90
2017-06-05T18:08:13.436Z,12.40
2017-06-05T18:10:40.957Z,12.70
2017-06-05T18:13:08.500Z,10.43
2017-06-05T18:15:36.052Z,11.00
2017-06-05T18:18:03.564Z,11.33
2017-06-05T18:20:31.326Z,9.67
2017-06-05T18:22:59.612Z,11.97
2017-06-05T18:25:27.881Z,8.53
2017-06-05T18:27:55.430Z,10.33
2017-06-05T18:30:23.737Z,10.40
2017-06-05T18:32:51.541Z,14.20
2017-06-05T18:35:19.062Z,9.83
2017-06-05T18:37:46.597Z,12.70
2017-06-05T18:40:14.882Z,10.20
2017-06-05T18:42:42.409Z,8.47
2017-06-05T18:45:10.178Z,11.63
2017-06-05T18:47:37.682Z,8.97
2017-06-05T18:50:05.213Z,10.53
2017-06-05T18:52:32.769Z,9.60
2017-06-05T18:55:00.292Z,9.60
2017-06-05T18:57:28.236Z,9.80
2017-06-05T18:59:55.764Z,9.10
2017-06-05T19:02:23.306Z,9.77
2017-06-05T19:04:50.865Z,9.80
2017-06-05T19:07:18.385Z,9.80
2017-06-05T19:09:46.143Z,9.90
2017-06-05T19:12:13.671Z,9.37
2017-06-05T19:14:41.202Z,8.03
2017-06-05T19:17:08.745Z,8.10
2017-06-05T19:19:36.297Z,9.20
2017-06-05T19:22:03.801Z,10.57
2017-06-05T19:24:31.595Z,8.60
2017-06-05T19:26:59.126Z,8.83
2017-06-05T19:29:26.645Z,8.30
2017-06-05T19:31:54.403Z,7.77
2017-06-05T19:34:21.937Z,8.57
2017-06-05T19:36:49.527Z,8.50
2017-06-05T19:39:17.043Z,8.10
2017-06-05T19:41:44.583Z,8.80
2017-06-05T19:44:12.357Z,8.50
2017-06-05T19:46:39.881Z,9.80
2017-06-05T19:49:07.410Z,8.90
2017-06-05T19:51:34.940Z,8.93
2017-06-05T19:54:02.477Z,9.17
2017-06-05T19:56:30.230Z,8.20
2017-06-05T19:58:57.774Z,9.53
2017-06-05T20:01:25.298Z,7.40
2017-06-05T20:03:52.834Z,6.90
2017-06-05T20:06:20.417Z,8.13
2017-06-05T20:08:49.106Z,8.20
2017-06-05T20:11:17.419Z,8.13
2017-06-05T20:13:44.947Z,8.27
2017-06-05T20:16:12.479Z,8.23
2017-06-05T20:18:40.033Z,8.07
2017-06-05T20:21:07.836Z,9.37
2017-06-05T20:23:35.423Z,7.90
2017-06-05T20:26:02.983Z,7.80
2017-06-05T20:28:30.540Z,8.27
2017-06-05T20:30:58.083Z,8.17
2017-06-05T20:33:25.843Z,9.30
2017-06-05T20:35:53.350Z,8.70
2017-06-05T20:38:20.883Z,8.10
2017-06-05T20:40:49.030Z,7.80
2017-06-05T20:43:17.340Z,9.47
2017-06-05T20:45:45.148Z,9.80
2017-06-05T20:48:12.702Z,10.43
2017-06-05T20:50:40.277Z,10.73
2017-06-05T20:53:07.895Z,11.50
2017-06-05T20:55:35.421Z,11.13
2017-06-05T20:58:04.115Z,11.17
2017-06-05T21:00:31.655Z,12.27
2017-06-05T21:02:59.216Z,14.87
2017-06-05T21:05:27.517Z,12.63
2017-06-05T21:07:55.073Z,13.47
2017-06-05T21:10:23.614Z,11.83
2017-06-05T21:12:51.136Z,13.37
2017-06-05T21:15:18.689Z,17.27
2017-06-05T21:17:46.239Z,12.60
2017-06-05T21:20:13.823Z,13.10
2017-06-05T21:22:41.804Z,13.20
2017-06-05T21:25:09.924Z,12.37
2017-06-05T21:27:37.460Z,12.97
2017-06-05T21:30:05.023Z,12.03
2017-06-05T21:32:32.590Z,12.97
2017-06-05T21:35:00.465Z,12.40
2017-06-05T21:37:27.988Z,15.33
2017-06-05T21:39:55.550Z,16.90
2017-06-05T21:42:23.112Z,13.07
2017-06-05T21:44:50.624Z,13.33
2017-06-05T21:47:19.322Z,14.30
2017-06-05T21:49:46.833Z,14.10
2017-06-05T21:52:14.358Z,12.67
2017-06-05T21:54:41.893Z,12.40
2017-06-05T21:57:41.984Z,13.30
2017-06-05T22:00:09.875Z,10.23
2017-06-05T22:02:38.157Z,10.70
2017-06-05T22:05:06.442Z,11.93
2017-06-05T22:07:34.728Z,10.57
2017-06-05T22:10:02.251Z,12.40
2017-06-05T22:12:30.011Z,10.73
2017-06-05T22:14:57.519Z,11.87
2017-06-05T22:17:25.057Z,12.47
2017-06-05T22:19:53.356Z,12.20
2017-06-05T22:22:20.877Z,10.50
2017-06-05T22:24:48.607Z,12.13
2017-06-05T22:27:16.117Z,13.40
2017-06-05T22:29:44.482Z,11.97
2017-06-05T22:32:12.010Z,13.40
2017-06-05T22:34:39.531Z,11.63
2017-06-05T22:37:07.256Z,11.20
2017-06-05T22:39:34.774Z,12.20
2017-06-05T22:42:02.283Z,11.03
2017-06-05T22:44:29.819Z,13.40
2017-06-05T22:46:57.330Z,12.23
2017-06-05T22:49:25.090Z,11.87
2017-06-05T22:51:52.631Z,13.80
2017-06-05T22:54:20.902Z,13.10
2017-06-05T22:56:48.438Z,11.60
2017-06-05T22:59:16.173Z,12.07
2017-06-05T23:01:44.028Z,12.17
2017-06-05T23:04:11.533Z,11.77
2017-06-05T23:06:39.037Z,12.10
2017-06-05T23:09:06.562Z,13.10
2017-06-05T23:11:34.092Z,13.00
2017-06-05T23:14:01.828Z,11.90
2017-06-05T23:16:29.510Z,12.33
2017-06-05T23:18:57.023Z,11.80
2017-06-05T23:21:24.549Z,12.23
2017-06-05T23:23:52.053Z,11.30
2017-06-05T23:26:20.747Z,10.63
2017-06-05T23:28:49.021Z,12.17
2017-06-05T23:31:17.297Z,11.13
2017-06-05T23:33:44.840Z,10.97
2017-06-05T23:36:12.381Z,11.27
2017-06-05T23:38:40.129Z,11.80
2017-06-05T23:41:07.633Z,10.13
2017-06-05T23:43:35.130Z,11.13
2017-06-05T23:46:02.648Z,10.13
2017-06-05T23:48:30.961Z,11.60
2017-06-05T23:50:58.696Z,12.33
2017-06-05T23:53:26.972Z,10.17
2017-06-05T23:55:55.249Z,11.50
2017-06-05T23:58:23.580Z,10.70
